sensor_id;sensor_type;location;lat;lon;timestamp;P1;durP1;ratioP1;P2;durP2;ratioP2
25854;SDS011;13680;49.936;11.344;2024-01-30T00:00:52;10.52;;;4.90;;
25854;SDS011;13680;49.936;11.344;2024-01-30T00:03:18;8.07;;;4.18;;
25854;SDS011;13680;49.936;11.344;2024-01-30T00:05:43;6.10;;;4.13;;
25854;SDS011;13680;49.936;11.344;2024-01-30T00:08:08;11.38;;;4.85;;
25854;SDS011;13680;49.936;11.344;2024-01-30T00:10:34;10.27;;;4.40;;
25854;SDS011;13680;49.936;11.344;2024-01-30T00:12:59;10.23;;;4.50;;
25854;SDS011;13680;49.936;11.344;2024-01-30T00:15:24;12.88;;;4.85;;
25854;SDS011;13680;49.936;11.344;2024-01-30T00:17:50;10.45;;;4.65;;
25854;SDS011;13680;49.936;11.344;2024-01-30T00:20:17;11.00;;;4.63;;
25854;SDS011;13680;49.936;11.344;2024-01-30T00:22:43;11.57;;;4.82;;
25854;SDS011;13680;49.936;11.344;2024-01-30T00:25:08;10.75;;;5.40;;
25854;SDS011;13680;49.936;11.344;2024-01-30T00:27:33;13.00;;;5.22;;
25854;SDS011;13680;49.936;11.344;2024-01-30T00:29:59;10.95;;;4.90;;
25854;SDS011;13680;49.936;11.344;2024-01-30T00:32:24;9.93;;;4.82;;
25854;SDS011;13680;49.936;11.344;2024-01-30T00:34:49;10.98;;;5.13;;
25854;SDS011;13680;49.936;11.344;2024-01-30T00:37:15;11.32;;;5.07;;
25854;SDS011;13680;49.936;11.344;2024-01-30T00:39:40;11.38;;;5.35;;
25854;SDS011;13680;49.936;11.344;2024-01-30T00:42:05;9.88;;;4.93;;
25854;SDS011;13680;49.936;11.344;2024-01-30T00:44:31;7.10;;;4.75;;
25854;SDS011;13680;49.936;11.344;2024-01-30T00:46:56;13.38;;;5.35;;
25854;SDS011;13680;49.936;11.344;2024-01-30T00:49:21;8.77;;;4.85;;
25854;SDS011;13680;49.936;11.344;2024-01-30T00:51:47;9.18;;;5.40;;
25854;SDS011;13680;49.936;11.344;2024-01-30T00:54:12;11.88;;;5.28;;
25854;SDS011;13680;49.936;11.344;2024-01-30T00:56:37;9.77;;;4.47;;
25854;SDS011;13680;49.936;11.344;2024-01-30T00:59:03;12.02;;;5.07;;
25854;SDS011;13680;49.936;11.344;2024-01-30T01:01:28;8.65;;;5.18;;
25854;SDS011;13680;49.936;11.344;2024-01-30T01:03:54;10.60;;;5.55;;
25854;SDS011;13680;49.936;11.344;2024-01-30T01:06:19;10.25;;;4.78;;
25854;SDS011;13680;49.936;11.344;2024-01-30T01:08:44;11.15;;;4.85;;
25854;SDS011;13680;49.936;11.344;2024-01-30T01:11:10;10.02;;;5.68;;
25854;SDS011;13680;49.936;11.344;2024-01-30T01:13:35;15.27;;;6.03;;
25854;SDS011;13680;49.936;11.344;2024-01-30T01:16:00;10.80;;;5.47;;
25854;SDS011;13680;49.936;11.344;2024-01-30T01:18:26;9.50;;;5.00;;
25854;SDS011;13680;49.936;11.344;2024-01-30T01:20:52;12.27;;;5.28;;
25854;SDS011;13680;49.936;11.344;2024-01-30T01:23:17;11.63;;;5.25;;
25854;SDS011;13680;49.936;11.344;2024-01-30T01:25:42;10.65;;;4.93;;
25854;SDS011;13680;49.936;11.344;2024-01-30T01:28:08;14.70;;;5.57;;
25854;SDS011;13680;49.936;11.344;2024-01-30T01:30:33;12.10;;;5.43;;
25854;SDS011;13680;49.936;11.344;2024-01-30T01:32:58;11.55;;;4.90;;
25854;SDS011;13680;49.936;11.344;2024-01-30T01:35:27;10.63;;;5.88;;
25854;SDS011;13680;49.936;11.344;2024-01-30T01:37:52;12.63;;;5.53;;
25854;SDS011;13680;49.936;11.344;2024-01-30T01:40:23;9.75;;;5.07;;
25854;SDS011;13680;49.936;11.344;2024-01-30T01:42:49;11.73;;;5.05;;
25854;SDS011;13680;49.936;11.344;2024-01-30T01:45:17;10.82;;;5.60;;
25854;SDS011;13680;49.936;11.344;2024-01-30T01:47:42;13.93;;;5.97;;
25854;SDS011;13680;49.936;11.344;2024-01-30T01:50:10;10.55;;;5.50;;
25854;SDS011;13680;49.936;11.344;2024-01-30T01:52:36;11.52;;;5.55;;
25854;SDS011;13680;49.936;11.344;2024-01-30T01:55:02;9.30;;;5.40;;
25854;SDS011;13680;49.936;11.344;2024-01-30T01:57:28;10.82;;;5.68;;
25854;SDS011;13680;49.936;11.344;2024-01-30T01:59:53;10.82;;;5.35;;
25854;SDS011;13680;49.936;11.344;2024-01-30T02:02:19;10.75;;;5.25;;
25854;SDS011;13680;49.936;11.344;2024-01-30T02:04:45;8.10;;;5.22;;
25854;SDS011;13680;49.936;11.344;2024-01-30T02:07:10;9.50;;;5.18;;
25854;SDS011;13680;49.936;11.344;2024-01-30T02:09:36;13.38;;;5.00;;
25854;SDS011;13680;49.936;11.344;2024-01-30T02:12:01;11.23;;;5.22;;
25854;SDS011;13680;49.936;11.344;2024-01-30T02:14:27;13.20;;;5.22;;
25854;SDS011;13680;49.936;11.344;2024-01-30T02:16:52;12.23;;;5.30;;
25854;SDS011;13680;49.936;11.344;2024-01-30T02:19:17;10.45;;;5.25;;
25854;SDS011;13680;49.936;11.344;2024-01-30T02:21:43;10.55;;;5.00;;
25854;SDS011;13680;49.936;11.344;2024-01-30T02:24:10;8.27;;;4.40;;
25854;SDS011;13680;49.936;11.344;2024-01-30T02:26:35;7.55;;;4.85;;
25854;SDS011;13680;49.936;11.344;2024-01-30T02:29:00;13.65;;;5.13;;
25854;SDS011;13680;49.936;11.344;2024-01-30T02:31:25;10.48;;;5.18;;
25854;SDS011;13680;49.936;11.344;2024-01-30T02:33:51;10.77;;;5.22;;
25854;SDS011;13680;49.936;11.344;2024-01-30T02:36:16;12.57;;;4.93;;
25854;SDS011;13680;49.936;11.344;2024-01-30T02:38:42;8.40;;;5.05;;
25854;SDS011;13680;49.936;11.344;2024-01-30T02:41:07;10.88;;;5.28;;
25854;SDS011;13680;49.936;11.344;2024-01-30T02:43:32;11.93;;;5.70;;
25854;SDS011;13680;49.936;11.344;2024-01-30T02:45:57;9.48;;;5.50;;
25854;SDS011;13680;49.936;11.344;2024-01-30T02:48:24;13.60;;;6.00;;
25854;SDS011;13680;49.936;11.344;2024-01-30T02:50:50;15.82;;;5.90;;
25854;SDS011;13680;49.936;11.344;2024-01-30T02:53:15;10.68;;;5.50;;
25854;SDS011;13680;49.936;11.344;2024-01-30T02:55:40;9.70;;;5.18;;
25854;SDS011;13680;49.936;11.344;2024-01-30T02:58:05;10.38;;;5.28;;
25854;SDS011;13680;49.936;11.344;2024-01-30T03:00:31;11.88;;;6.10;;
25854;SDS011;13680;49.936;11.344;2024-01-30T03:02:57;9.02;;;5.38;;
25854;SDS011;13680;49.936;11.344;2024-01-30T03:05:22;16.45;;;5.68;;
25854;SDS011;13680;49.936;11.344;2024-01-30T03:07:48;11.65;;;5.53;;
25854;SDS011;13680;49.936;11.344;2024-01-30T03:10:13;9.55;;;5.32;;
25854;SDS011;13680;49.936;11.344;2024-01-30T03:12:38;11.07;;;6.03;;
25854;SDS011;13680;49.936;11.344;2024-01-30T03:15:03;10.18;;;5.53;;
25854;SDS011;13680;49.936;11.344;2024-01-30T03:17:29;11.98;;;5.78;;
25854;SDS011;13680;49.936;11.344;2024-01-30T03:19:54;9.93;;;5.85;;
25854;SDS011;13680;49.936;11.344;2024-01-30T03:22:19;12.70;;;5.75;;
25854;SDS011;13680;49.936;11.344;2024-01-30T03:24:45;10.88;;;5.60;;
25854;SDS011;13680;49.936;11.344;2024-01-30T03:27:10;11.88;;;5.60;;
25854;SDS011;13680;49.936;11.344;2024-01-30T03:29:36;10.13;;;5.55;;
25854;SDS011;13680;49.936;11.344;2024-01-30T03:32:01;11.68;;;5.28;;
25854;SDS011;13680;49.936;11.344;2024-01-30T03:34:28;12.68;;;5.28;;
25854;SDS011;13680;49.936;11.344;2024-01-30T03:36:54;9.85;;;5.75;;
25854;SDS011;13680;49.936;11.344;2024-01-30T03:39:19;11.57;;;5.90;;
25854;SDS011;13680;49.936;11.344;2024-01-30T03:41:44;12.05;;;6.40;;
25854;SDS011;13680;49.936;11.344;2024-01-30T03:44:10;11.45;;;5.85;;
25854;SDS011;13680;49.936;11.344;2024-01-30T03:46:36;15.30;;;5.93;;
25854;SDS011;13680;49.936;11.344;2024-01-30T03:49:01;10.15;;;5.78;;
25854;SDS011;13680;49.936;11.344;2024-01-30T03:51:26;11.95;;;5.63;;
25854;SDS011;13680;49.936;11.344;2024-01-30T03:53:51;11.35;;;5.78;;
25854;SDS011;13680;49.936;11.344;2024-01-30T03:56:17;8.75;;;5.28;;
25854;SDS011;13680;49.936;11.344;2024-01-30T03:58:42;11.38;;;6.13;;
25854;SDS011;13680;49.936;11.344;2024-01-30T04:01:07;12.88;;;6.05;;
25854;SDS011;13680;49.936;11.344;2024-01-30T04:03:37;9.02;;;5.18;;
25854;SDS011;13680;49.936;11.344;2024-01-30T04:06:03;15.00;;;6.40;;
25854;SDS011;13680;49.936;11.344;2024-01-30T04:08:28;12.30;;;6.00;;
25854;SDS011;13680;49.936;11.344;2024-01-30T04:10:53;13.93;;;5.80;;
25854;SDS011;13680;49.936;11.344;2024-01-30T04:13:19;12.15;;;5.80;;
25854;SDS011;13680;49.936;11.344;2024-01-30T04:15:45;9.90;;;5.45;;
25854;SDS011;13680;49.936;11.344;2024-01-30T04:18:10;12.80;;;6.20;;
25854;SDS011;13680;49.936;11.344;2024-01-30T04:20:35;14.02;;;5.68;;
25854;SDS011;13680;49.936;11.344;2024-01-30T04:23:01;12.43;;;6.93;;
25854;SDS011;13680;49.936;11.344;2024-01-30T04:25:26;17.38;;;7.00;;
25854;SDS011;13680;49.936;11.344;2024-01-30T04:27:51;15.15;;;6.38;;
25854;SDS011;13680;49.936;11.344;2024-01-30T04:30:17;11.90;;;6.60;;
25854;SDS011;13680;49.936;11.344;2024-01-30T04:32:43;11.57;;;5.88;;
25854;SDS011;13680;49.936;11.344;2024-01-30T04:35:08;11.20;;;6.00;;
25854;SDS011;13680;49.936;11.344;2024-01-30T04:37:34;14.90;;;6.60;;
25854;SDS011;13680;49.936;11.344;2024-01-30T04:39:59;15.07;;;6.78;;
25854;SDS011;13680;49.936;11.344;2024-01-30T04:42:24;15.82;;;7.00;;
25854;SDS011;13680;49.936;11.344;2024-01-30T04:44:50;14.00;;;6.93;;
25854;SDS011;13680;49.936;11.344;2024-01-30T04:47:15;15.45;;;6.55;;
25854;SDS011;13680;49.936;11.344;2024-01-30T04:49:41;16.50;;;6.93;;
25854;SDS011;13680;49.936;11.344;2024-01-30T04:52:07;11.60;;;6.10;;
25854;SDS011;13680;49.936;11.344;2024-01-30T04:54:33;11.57;;;6.35;;
25854;SDS011;13680;49.936;11.344;2024-01-30T04:56:59;11.88;;;6.93;;
25854;SDS011;13680;49.936;11.344;2024-01-30T04:59:25;14.70;;;8.25;;
25854;SDS011;13680;49.936;11.344;2024-01-30T05:01:50;15.27;;;7.13;;
25854;SDS011;13680;49.936;11.344;2024-01-30T05:04:15;16.02;;;7.50;;
25854;SDS011;13680;49.936;11.344;2024-01-30T05:06:41;15.38;;;7.32;;
25854;SDS011;13680;49.936;11.344;2024-01-30T05:09:06;18.67;;;7.57;;
25854;SDS011;13680;49.936;11.344;2024-01-30T05:11:36;15.65;;;7.65;;
25854;SDS011;13680;49.936;11.344;2024-01-30T05:14:03;16.20;;;7.78;;
25854;SDS011;13680;49.936;11.344;2024-01-30T05:16:28;11.63;;;6.65;;
25854;SDS011;13680;49.936;11.344;2024-01-30T05:18:53;12.25;;;6.80;;
25854;SDS011;13680;49.936;11.344;2024-01-30T05:21:19;16.42;;;6.78;;
25854;SDS011;13680;49.936;11.344;2024-01-30T05:23:44;16.52;;;7.53;;
25854;SDS011;13680;49.936;11.344;2024-01-30T05:26:09;16.58;;;6.68;;
25854;SDS011;13680;49.936;11.344;2024-01-30T05:28:35;14.98;;;7.63;;
25854;SDS011;13680;49.936;11.344;2024-01-30T05:31:01;13.43;;;7.22;;
25854;SDS011;13680;49.936;11.344;2024-01-30T05:33:26;15.57;;;7.97;;
25854;SDS011;13680;49.936;11.344;2024-01-30T05:35:52;14.93;;;7.18;;
25854;SDS011;13680;49.936;11.344;2024-01-30T05:38:19;15.75;;;7.07;;
25854;SDS011;13680;49.936;11.344;2024-01-30T05:40:45;15.63;;;7.15;;
25854;SDS011;13680;49.936;11.344;2024-01-30T05:43:10;12.13;;;6.03;;
25854;SDS011;13680;49.936;11.344;2024-01-30T05:45:36;15.57;;;7.32;;
25854;SDS011;13680;49.936;11.344;2024-01-30T05:48:01;11.90;;;6.10;;
25854;SDS011;13680;49.936;11.344;2024-01-30T05:50:26;15.57;;;6.18;;
25854;SDS011;13680;49.936;11.344;2024-01-30T05:52:52;17.80;;;7.80;;
25854;SDS011;13680;49.936;11.344;2024-01-30T05:55:17;14.50;;;7.85;;
25854;SDS011;13680;49.936;11.344;2024-01-30T05:57:42;20.65;;;8.52;;
25854;SDS011;13680;49.936;11.344;2024-01-30T06:00:08;16.83;;;7.40;;
25854;SDS011;13680;49.936;11.344;2024-01-30T06:02:33;14.70;;;6.80;;
25854;SDS011;13680;49.936;11.344;2024-01-30T06:04:59;18.85;;;7.95;;
25854;SDS011;13680;49.936;11.344;2024-01-30T06:07:24;16.13;;;7.97;;
25854;SDS011;13680;49.936;11.344;2024-01-30T06:09:49;16.60;;;7.65;;
25854;SDS011;13680;49.936;11.344;2024-01-30T06:12:15;12.77;;;6.88;;
25854;SDS011;13680;49.936;11.344;2024-01-30T06:14:40;24.42;;;9.73;;
25854;SDS011;13680;49.936;11.344;2024-01-30T06:17:07;14.48;;;8.02;;
25854;SDS011;13680;49.936;11.344;2024-01-30T06:19:33;18.38;;;8.10;;
25854;SDS011;13680;49.936;11.344;2024-01-30T06:21:58;16.45;;;7.35;;
25854;SDS011;13680;49.936;11.344;2024-01-30T06:24:24;16.38;;;7.07;;
25854;SDS011;13680;49.936;11.344;2024-01-30T06:26:49;17.27;;;7.25;;
25854;SDS011;13680;49.936;11.344;2024-01-30T06:29:14;17.75;;;6.70;;
25854;SDS011;13680;49.936;11.344;2024-01-30T06:31:41;13.60;;;7.57;;
25854;SDS011;13680;49.936;11.344;2024-01-30T06:34:07;13.93;;;6.53;;
25854;SDS011;13680;49.936;11.344;2024-01-30T06:36:33;10.95;;;6.05;;
25854;SDS011;13680;49.936;11.344;2024-01-30T06:38:58;13.48;;;6.65;;
25854;SDS011;13680;49.936;11.344;2024-01-30T06:41:23;14.95;;;6.82;;
25854;SDS011;13680;49.936;11.344;2024-01-30T06:43:49;12.45;;;6.63;;
25854;SDS011;13680;49.936;11.344;2024-01-30T06:46:15;15.73;;;6.70;;
25854;SDS011;13680;49.936;11.344;2024-01-30T06:48:40;16.13;;;7.68;;
25854;SDS011;13680;49.936;11.344;2024-01-30T06:51:05;14.48;;;6.95;;
25854;SDS011;13680;49.936;11.344;2024-01-30T06:53:31;12.73;;;6.78;;
25854;SDS011;13680;49.936;11.344;2024-01-30T06:55:57;12.57;;;6.53;;
25854;SDS011;13680;49.936;11.344;2024-01-30T06:58:22;15.68;;;6.72;;
25854;SDS011;13680;49.936;11.344;2024-01-30T07:00:47;14.60;;;7.80;;
25854;SDS011;13680;49.936;11.344;2024-01-30T07:03:13;14.18;;;7.47;;
25854;SDS011;13680;49.936;11.344;2024-01-30T07:05:38;13.45;;;7.55;;
25854;SDS011;13680;49.936;11.344;2024-01-30T07:08:04;12.80;;;7.45;;
25854;SDS011;13680;49.936;11.344;2024-01-30T07:10:29;13.52;;;7.30;;
25854;SDS011;13680;49.936;11.344;2024-01-30T07:12:56;17.05;;;7.82;;
25854;SDS011;13680;49.936;11.344;2024-01-30T07:15:21;16.13;;;7.68;;
25854;SDS011;13680;49.936;11.344;2024-01-30T07:17:47;13.45;;;6.75;;
25854;SDS011;13680;49.936;11.344;2024-01-30T07:20:12;13.05;;;6.40;;
25854;SDS011;13680;49.936;11.344;2024-01-30T07:22:38;12.88;;;6.97;;
25854;SDS011;13680;49.936;11.344;2024-01-30T07:25:03;16.75;;;7.05;;
25854;SDS011;13680;49.936;11.344;2024-01-30T07:27:29;15.68;;;6.75;;
25854;SDS011;13680;49.936;11.344;2024-01-30T07:29:54;17.60;;;6.93;;
25854;SDS011;13680;49.936;11.344;2024-01-30T07:32:19;11.55;;;6.68;;
25854;SDS011;13680;49.936;11.344;2024-01-30T07:34:45;10.43;;;6.07;;
25854;SDS011;13680;49.936;11.344;2024-01-30T07:37:10;13.40;;;6.40;;
25854;SDS011;13680;49.936;11.344;2024-01-30T07:39:36;12.93;;;6.28;;
25854;SDS011;13680;49.936;11.344;2024-01-30T07:42:01;13.07;;;6.43;;
25854;SDS011;13680;49.936;11.344;2024-01-30T07:44:27;15.57;;;6.65;;
25854;SDS011;13680;49.936;11.344;2024-01-30T07:46:53;11.27;;;6.18;;
25854;SDS011;13680;49.936;11.344;2024-01-30T07:49:18;17.65;;;7.57;;
25854;SDS011;13680;49.936;11.344;2024-01-30T07:51:43;14.98;;;7.40;;
25854;SDS011;13680;49.936;11.344;2024-01-30T07:54:10;13.13;;;7.00;;
25854;SDS011;13680;49.936;11.344;2024-01-30T07:56:35;15.95;;;7.13;;
25854;SDS011;13680;49.936;11.344;2024-01-30T07:59:00;14.95;;;6.63;;
25854;SDS011;13680;49.936;11.344;2024-01-30T08:01:26;13.43;;;7.30;;
25854;SDS011;13680;49.936;11.344;2024-01-30T08:03:51;17.05;;;8.55;;
25854;SDS011;13680;49.936;11.344;2024-01-30T08:06:16;20.25;;;9.32;;
25854;SDS011;13680;49.936;11.344;2024-01-30T08:08:42;19.83;;;9.30;;
25854;SDS011;13680;49.936;11.344;2024-01-30T08:11:07;22.27;;;9.50;;
25854;SDS011;13680;49.936;11.344;2024-01-30T08:13:33;25.50;;;11.88;;
25854;SDS011;13680;49.936;11.344;2024-01-30T08:15:58;25.67;;;11.38;;
25854;SDS011;13680;49.936;11.344;2024-01-30T08:18:23;25.10;;;12.88;;
25854;SDS011;13680;49.936;11.344;2024-01-30T08:20:49;25.40;;;13.93;;
25854;SDS011;13680;49.936;11.344;2024-01-30T08:23:14;25.92;;;13.43;;
25854;SDS011;13680;49.936;11.344;2024-01-30T08:25:39;28.52;;;13.60;;
25854;SDS011;13680;49.936;11.344;2024-01-30T08:28:05;24.02;;;14.57;;
25854;SDS011;13680;49.936;11.344;2024-01-30T08:30:30;25.98;;;14.23;;
25854;SDS011;13680;49.936;11.344;2024-01-30T08:32:55;30.73;;;14.15;;
25854;SDS011;13680;49.936;11.344;2024-01-30T08:35:21;25.35;;;12.93;;
25854;SDS011;13680;49.936;11.344;2024-01-30T08:37:46;26.08;;;12.63;;
25854;SDS011;13680;49.936;11.344;2024-01-30T08:40:11;27.67;;;13.55;;
25854;SDS011;13680;49.936;11.344;2024-01-30T08:42:37;25.27;;;13.98;;
25854;SDS011;13680;49.936;11.344;2024-01-30T08:45:02;25.52;;;14.23;;
25854;SDS011;13680;49.936;11.344;2024-01-30T08:47:29;29.60;;;14.02;;
25854;SDS011;13680;49.936;11.344;2024-01-30T08:49:55;29.48;;;14.10;;
25854;SDS011;13680;49.936;11.344;2024-01-30T08:52:20;29.27;;;15.32;;
25854;SDS011;13680;49.936;11.344;2024-01-30T08:54:45;30.95;;;14.38;;
25854;SDS011;13680;49.936;11.344;2024-01-30T08:57:11;31.13;;;15.85;;
25854;SDS011;13680;49.936;11.344;2024-01-30T08:59:36;31.20;;;16.58;;
25854;SDS011;13680;49.936;11.344;2024-01-30T09:02:01;29.52;;;15.38;;
25854;SDS011;13680;49.936;11.344;2024-01-30T09:04:27;36.65;;;19.55;;
25854;SDS011;13680;49.936;11.344;2024-01-30T09:06:53;37.38;;;19.02;;
25854;SDS011;13680;49.936;11.344;2024-01-30T09:09:18;32.97;;;18.00;;
25854;SDS011;13680;49.936;11.344;2024-01-30T09:11:44;33.80;;;19.65;;
25854;SDS011;13680;49.936;11.344;2024-01-30T09:14:09;30.23;;;18.27;;
25854;SDS011;13680;49.936;11.344;2024-01-30T09:16:35;29.20;;;17.02;;
25854;SDS011;13680;49.936;11.344;2024-01-30T09:19:00;33.95;;;17.63;;
25854;SDS011;13680;49.936;11.344;2024-01-30T09:21:25;30.60;;;16.33;;
25854;SDS011;13680;49.936;11.344;2024-01-30T09:23:54;33.15;;;17.23;;
25854;SDS011;13680;49.936;11.344;2024-01-30T09:26:19;31.55;;;17.45;;
25854;SDS011;13680;49.936;11.344;2024-01-30T09:28:44;30.85;;;15.40;;
25854;SDS011;13680;49.936;11.344;2024-01-30T09:31:10;32.75;;;16.27;;
25854;SDS011;13680;49.936;11.344;2024-01-30T09:33:36;28.60;;;15.60;;
25854;SDS011;13680;49.936;11.344;2024-01-30T09:36:02;29.23;;;15.88;;
25854;SDS011;13680;49.936;11.344;2024-01-30T09:38:27;29.90;;;15.13;;
25854;SDS011;13680;49.936;11.344;2024-01-30T09:40:53;25.50;;;14.65;;
25854;SDS011;13680;49.936;11.344;2024-01-30T09:43:22;31.52;;;15.27;;
25854;SDS011;13680;49.936;11.344;2024-01-30T09:45:50;30.85;;;15.77;;
25854;SDS011;13680;49.936;11.344;2024-01-30T09:48:15;31.73;;;15.68;;
25854;SDS011;13680;49.936;11.344;2024-01-30T09:50:41;31.73;;;16.17;;
25854;SDS011;13680;49.936;11.344;2024-01-30T09:53:07;30.08;;;15.98;;
25854;SDS011;13680;49.936;11.344;2024-01-30T09:55:34;28.52;;;15.40;;
25854;SDS011;13680;49.936;11.344;2024-01-30T09:58:00;27.40;;;15.15;;
25854;SDS011;13680;49.936;11.344;2024-01-30T10:00:26;28.75;;;16.67;;
25854;SDS011;13680;49.936;11.344;2024-01-30T10:02:52;27.55;;;15.77;;
25854;SDS011;13680;49.936;11.344;2024-01-30T10:05:18;27.95;;;15.50;;
25854;SDS011;13680;49.936;11.344;2024-01-30T10:07:53;28.92;;;15.98;;
25854;SDS011;13680;49.936;11.344;2024-01-30T10:10:22;27.00;;;16.27;;
25854;SDS011;13680;49.936;11.344;2024-01-30T10:12:48;26.35;;;15.52;;
25854;SDS011;13680;49.936;11.344;2024-01-30T10:15:14;31.52;;;16.42;;
25854;SDS011;13680;49.936;11.344;2024-01-30T10:17:40;27.42;;;15.00;;
25854;SDS011;13680;49.936;11.344;2024-01-30T10:20:05;29.52;;;15.38;;
25854;SDS011;13680;49.936;11.344;2024-01-30T10:22:31;31.20;;;15.80;;
25854;SDS011;13680;49.936;11.344;2024-01-30T10:24:57;31.77;;;16.92;;
25854;SDS011;13680;49.936;11.344;2024-01-30T10:27:25;28.10;;;15.65;;
25854;SDS011;13680;49.936;11.344;2024-01-30T10:29:52;29.67;;;16.45;;
25854;SDS011;13680;49.936;11.344;2024-01-30T10:32:17;31.92;;;16.13;;
25854;SDS011;13680;49.936;11.344;2024-01-30T10:34:43;29.58;;;15.68;;
25854;SDS011;13680;49.936;11.344;2024-01-30T10:37:09;29.83;;;16.58;;
25854;SDS011;13680;49.936;11.344;2024-01-30T10:39:40;31.58;;;16.98;;
25854;SDS011;13680;49.936;11.344;2024-01-30T10:42:10;29.65;;;15.82;;
25854;SDS011;13680;49.936;11.344;2024-01-30T10:47:36;31.50;;;16.83;;
25854;SDS011;13680;49.936;11.344;2024-01-30T10:50:02;30.65;;;16.27;;
25854;SDS011;13680;49.936;11.344;2024-01-30T10:52:28;31.38;;;16.52;;
25854;SDS011;13680;49.936;11.344;2024-01-30T10:54:55;30.15;;;15.75;;
25854;SDS011;13680;49.936;11.344;2024-01-30T10:57:25;32.13;;;16.55;;
25854;SDS011;13680;49.936;11.344;2024-01-30T10:59:52;29.55;;;15.30;;
25854;SDS011;13680;49.936;11.344;2024-01-30T11:02:20;29.65;;;16.42;;
25854;SDS011;13680;49.936;11.344;2024-01-30T11:04:48;26.48;;;15.55;;
25854;SDS011;13680;49.936;11.344;2024-01-30T11:07:17;27.55;;;15.57;;
25854;SDS011;13680;49.936;11.344;2024-01-30T11:09:51;32.10;;;15.63;;
25854;SDS011;13680;49.936;11.344;2024-01-30T11:12:24;29.20;;;15.60;;
25854;SDS011;13680;49.936;11.344;2024-01-30T11:15:01;26.42;;;14.18;;
25854;SDS011;13680;49.936;11.344;2024-01-30T11:17:28;27.65;;;15.00;;
25854;SDS011;13680;49.936;11.344;2024-01-30T11:19:53;27.60;;;14.38;;
25854;SDS011;13680;49.936;11.344;2024-01-30T11:22:20;30.55;;;15.52;;
25854;SDS011;13680;49.936;11.344;2024-01-30T11:24:46;26.13;;;14.98;;
25854;SDS011;13680;49.936;11.344;2024-01-30T11:27:12;27.85;;;14.43;;
25854;SDS011;13680;49.936;11.344;2024-01-30T11:29:38;26.02;;;14.88;;
25854;SDS011;13680;49.936;11.344;2024-01-30T11:32:05;25.05;;;15.63;;
25854;SDS011;13680;49.936;11.344;2024-01-30T11:34:32;33.03;;;15.18;;
25854;SDS011;13680;49.936;11.344;2024-01-30T11:36:59;25.00;;;14.55;;
25854;SDS011;13680;49.936;11.344;2024-01-30T11:39:31;27.17;;;14.90;;
25854;SDS011;13680;49.936;11.344;2024-01-30T11:41:57;29.50;;;14.88;;
25854;SDS011;13680;49.936;11.344;2024-01-30T11:44:23;24.45;;;15.27;;
25854;SDS011;13680;49.936;11.344;2024-01-30T11:46:50;32.40;;;14.80;;
25854;SDS011;13680;49.936;11.344;2024-01-30T11:49:17;24.35;;;13.82;;
25854;SDS011;13680;49.936;11.344;2024-01-30T11:51:43;23.65;;;13.93;;
25854;SDS011;13680;49.936;11.344;2024-01-30T11:54:10;28.55;;;14.68;;
25854;SDS011;13680;49.936;11.344;2024-01-30T11:56:36;25.75;;;14.35;;
25854;SDS011;13680;49.936;11.344;2024-01-30T11:59:01;27.95;;;14.27;;
25854;SDS011;13680;49.936;11.344;2024-01-30T12:01:27;27.02;;;16.83;;
25854;SDS011;13680;49.936;11.344;2024-01-30T12:03:52;37.10;;;15.80;;
25854;SDS011;13680;49.936;11.344;2024-01-30T12:06:18;28.20;;;15.25;;
25854;SDS011;13680;49.936;11.344;2024-01-30T12:08:54;29.55;;;19.23;;
25854;SDS011;13680;49.936;11.344;2024-01-30T12:11:24;24.98;;;15.20;;
25854;SDS011;13680;49.936;11.344;2024-01-30T12:13:50;27.55;;;16.30;;
25854;SDS011;13680;49.936;11.344;2024-01-30T12:16:16;28.90;;;15.77;;
25854;SDS011;13680;49.936;11.344;2024-01-30T12:18:42;31.83;;;16.50;;
25854;SDS011;13680;49.936;11.344;2024-01-30T12:21:07;34.88;;;19.52;;
25854;SDS011;13680;49.936;11.344;2024-01-30T12:23:34;29.85;;;15.73;;
25854;SDS011;13680;49.936;11.344;2024-01-30T12:26:00;27.02;;;15.43;;
25854;SDS011;13680;49.936;11.344;2024-01-30T12:28:27;27.92;;;16.58;;
25854;SDS011;13680;49.936;11.344;2024-01-30T12:30:56;26.00;;;15.55;;
25854;SDS011;13680;49.936;11.344;2024-01-30T12:33:26;27.60;;;16.83;;
25854;SDS011;13680;49.936;11.344;2024-01-30T12:35:51;22.98;;;14.85;;
25854;SDS011;13680;49.936;11.344;2024-01-30T12:38:17;22.35;;;14.38;;
25854;SDS011;13680;49.936;11.344;2024-01-30T12:40:42;28.70;;;16.17;;
25854;SDS011;13680;49.936;11.344;2024-01-30T12:43:08;32.35;;;14.70;;
25854;SDS011;13680;49.936;11.344;2024-01-30T12:45:33;32.85;;;16.60;;
25854;SDS011;13680;49.936;11.344;2024-01-30T12:47:59;29.35;;;16.95;;
25854;SDS011;13680;49.936;11.344;2024-01-30T12:50:24;32.97;;;16.15;;
25854;SDS011;13680;49.936;11.344;2024-01-30T12:52:49;29.70;;;15.80;;
25854;SDS011;13680;49.936;11.344;2024-01-30T12:55:15;27.90;;;15.95;;
25854;SDS011;13680;49.936;11.344;2024-01-30T12:57:40;29.70;;;15.38;;
25854;SDS011;13680;49.936;11.344;2024-01-30T13:00:06;24.00;;;14.70;;
25854;SDS011;13680;49.936;11.344;2024-01-30T13:02:35;26.25;;;14.35;;
25854;SDS011;13680;49.936;11.344;2024-01-30T13:05:02;21.35;;;13.85;;
25854;SDS011;13680;49.936;11.344;2024-01-30T13:07:29;25.80;;;14.23;;
25854;SDS011;13680;49.936;11.344;2024-01-30T13:09:54;29.60;;;13.35;;
25854;SDS011;13680;49.936;11.344;2024-01-30T13:12:19;23.55;;;13.93;;
25854;SDS011;13680;49.936;11.344;2024-01-30T13:14:45;49.92;;;13.60;;
25854;SDS011;13680;49.936;11.344;2024-01-30T13:17:10;26.83;;;13.27;;
25854;SDS011;13680;49.936;11.344;2024-01-30T13:19:35;24.25;;;12.00;;
25854;SDS011;13680;49.936;11.344;2024-01-30T13:22:01;24.13;;;12.40;;
25854;SDS011;13680;49.936;11.344;2024-01-30T13:24:26;19.95;;;12.82;;
25854;SDS011;13680;49.936;11.344;2024-01-30T13:26:52;21.08;;;11.57;;
25854;SDS011;13680;49.936;11.344;2024-01-30T13:29:18;18.58;;;10.73;;
25854;SDS011;13680;49.936;11.344;2024-01-30T13:31:43;20.00;;;10.88;;
25854;SDS011;13680;49.936;11.344;2024-01-30T13:34:11;16.70;;;10.98;;
25854;SDS011;13680;49.936;11.344;2024-01-30T13:36:37;17.45;;;10.50;;
25854;SDS011;13680;49.936;11.344;2024-01-30T13:39:03;17.25;;;10.77;;
25854;SDS011;13680;49.936;11.344;2024-01-30T13:41:29;21.42;;;11.43;;
25854;SDS011;13680;49.936;11.344;2024-01-30T13:43:55;20.60;;;11.50;;
25854;SDS011;13680;49.936;11.344;2024-01-30T13:46:20;20.25;;;10.85;;
25854;SDS011;13680;49.936;11.344;2024-01-30T13:48:45;21.65;;;11.65;;
25854;SDS011;13680;49.936;11.344;2024-01-30T13:51:11;23.70;;;11.15;;
25854;SDS011;13680;49.936;11.344;2024-01-30T13:53:38;19.67;;;10.75;;
25854;SDS011;13680;49.936;11.344;2024-01-30T13:56:03;20.30;;;12.10;;
25854;SDS011;13680;49.936;11.344;2024-01-30T13:58:29;20.98;;;11.88;;
25854;SDS011;13680;49.936;11.344;2024-01-30T14:00:54;20.15;;;12.15;;
25854;SDS011;13680;49.936;11.344;2024-01-30T14:03:19;23.83;;;12.45;;
25854;SDS011;13680;49.936;11.344;2024-01-30T14:05:45;21.85;;;11.75;;
25854;SDS011;13680;49.936;11.344;2024-01-30T14:08:10;21.90;;;11.73;;
25854;SDS011;13680;49.936;11.344;2024-01-30T14:10:36;22.60;;;11.73;;